Time;durP1;ratioP1;P1;durP2;ratioP2;P2;SDS_P1;SDS_P2;PMS_P1;PMS_P2;Temp;Humidity;BMP_temperature;BMP_pressure;BME280_temperature;BME280_humidity;BME280_pressure;Samples;Min_cycle;Max_cycle;Signal;HPM_P1;HPM_P2
2021/12/09 00:01:01;;;;;;;4.97;2.90;;;;;21.30;99116.00;;;;2085417;28;20209;-47
2021/12/09 00:02:02;;;;;;;4.70;3.15;;;;;21.30;99111.00;;;;2086466;28;20303;-49
2021/12/09 00:03:06;;;;;;;3.07;2.67;;;;;21.30;99113.00;;;;2086656;28;20209;-47
2021/12/09 00:04:10;;;;;;;3.53;3.10;;;;;21.30;99114.00;;;;2086662;28;20220;-47
2021/12/09 00:05:13;;;;;;;4.68;2.92;;;;;21.20;99111.00;;;;2085986;28;20212;-47
2021/12/09 00:06:15;;;;;;;3.53;2.70;;;;;21.20;99116.00;;;;2085468;28;20220;-47
2021/12/09 00:07:15;;;;;;;5.97;3.00;;;;;21.20;99105.00;;;;2080882;28;20739;-47
2021/12/09 00:08:16;;;;;;;4.53;2.67;;;;;21.20;99129.00;;;;2078638;28;20217;-47
2021/12/09 00:09:19;;;;;;;3.70;2.50;;;;;21.20;99116.00;;;;2078839;28;20535;-48
2021/12/09 00:10:20;;;;;;;4.72;2.90;;;;;21.20;99116.00;;;;2077191;28;20220;-49
2021/12/09 00:11:20;;;;;;;3.40;3.00;;;;;21.20;99109.00;;;;2078337;28;20322;-49
2021/12/09 00:12:22;;;;;;;3.97;3.00;;;;;21.20;99125.00;;;;2086015;28;20209;-47
2021/12/09 00:13:26;;;;;;;4.13;2.63;;;;;21.20;99119.00;;;;2085804;28;20216;-47
2021/12/09 00:14:30;;;;;;;3.15;2.53;;;;;21.20;99116.00;;;;2069485;28;20288;-48
2021/12/09 00:15:30;;;;;;;3.42;2.95;;;;;21.10;99116.00;;;;2077766;28;20220;-49
2021/12/09 00:16:31;;;;;;;3.33;2.67;;;;;21.20;99120.00;;;;2083979;28;20227;-49
2021/12/09 00:17:31;;;;;;;3.50;2.43;;;;;21.20;99118.00;;;;2086955;28;20216;-47
2021/12/09 00:18:31;;;;;;;3.90;3.03;;;;;21.10;99117.00;;;;2080490;28;20243;-48
2021/12/09 00:19:32;;;;;;;3.20;2.60;;;;;21.20;99127.00;;;;2085211;28;20216;-49
2021/12/09 00:20:33;;;;;;;4.03;2.73;;;;;21.10;99119.00;;;;2085323;28;20247;-49
2021/12/09 00:21:34;;;;;;;4.47;2.80;;;;;21.10;99111.00;;;;2079373;28;20225;-47
2021/12/09 00:22:34;;;;;;;4.10;2.80;;;;;21.10;99120.00;;;;2083425;28;20959;-49
2021/12/09 00:23:35;;;;;;;4.97;2.77;;;;;21.10;99120.00;;;;2087083;28;20467;-49
2021/12/09 00:24:35;;;;;;;3.87;2.83;;;;;21.10;99117.00;;;;2083290;28;20226;-47
2021/12/09 00:25:36;;;;;;;3.30;2.80;;;;;21.10;99121.00;;;;2082696;28;20213;-47
2021/12/09 00:26:38;;;;;;;3.00;2.60;;;;;21.10;99112.00;;;;2086097;28;20562;-48
2021/12/09 00:27:39;;;;;;;3.03;2.60;;;;;21.10;99115.00;;;;2086224;28;20223;-49
2021/12/09 00:28:39;;;;;;;3.30;2.40;;;;;21.10;99112.00;;;;2086697;28;20747;-48
2021/12/09 00:29:39;;;;;;;3.33;2.77;;;;;21.10;99119.00;;;;2086972;28;20693;-48
2021/12/09 00:30:40;;;;;;;4.90;2.73;;;;;21.00;99121.00;;;;2080879;28;20685;-47
2021/12/09 00:31:40;;;;;;;5.33;2.50;;;;;21.10;99116.00;;;;2078484;28;20819;-48
2021/12/09 00:32:41;;;;;;;3.47;2.53;;;;;21.10;99115.00;;;;2079078;28;20217;-48
2021/12/09 00:33:44;;;;;;;4.00;2.70;;;;;21.10;99120.00;;;;2086256;28;20356;-49
2021/12/09 00:34:48;;;;;;;3.90;2.58;;;;;21.00;99119.00;;;;2086151;28;20216;-48
2021/12/09 00:35:56;;;;;;;3.55;2.40;;;;;21.00;99113.00;;;;2078835;28;20682;-48
2021/12/09 00:37:03;;;;;;;4.63;2.50;;;;;21.00;99110.00;;;;2082741;28;20219;-50
2021/12/09 00:38:07;;;;;;;4.70;2.95;;;;;21.00;99107.00;;;;2086217;28;20217;-47
2021/12/09 00:39:09;;;;;;;3.88;2.83;;;;;21.00;99111.00;;;;2082185;28;20282;-49
2021/12/09 00:40:09;;;;;;;3.80;2.53;;;;;21.00;99117.00;;;;2086685;28;20204;-49
2021/12/09 00:41:12;;;;;;;2.87;2.20;;;;;21.00;99118.00;;;;2084821;28;20559;-48
2021/12/09 00:42:12;;;;;;;5.22;2.90;;;;;21.00;99127.00;;;;2085844;28;20220;-49
2021/12/09 00:43:12;;;;;;;3.77;2.40;;;;;21.00;99115.00;;;;2086528;28;20208;-49
2021/12/09 00:44:13;;;;;;;2.90;2.60;;;;;21.00;99123.00;;;;2086955;28;20346;-48
2021/12/09 00:45:13;;;;;;;4.10;2.57;;;;;21.00;99114.00;;;;2085472;28;20787;-48
2021/12/09 00:46:14;;;;;;;4.40;2.50;;;;;21.00;99101.00;;;;2083464;28;20288;-48
2021/12/09 00:47:14;;;;;;;4.50;2.43;;;;;21.00;99112.00;;;;2085722;28;20291;-49
2021/12/09 00:48:15;;;;;;;2.80;2.53;;;;;21.00;99105.00;;;;2081487;28;20228;-48
2021/12/09 00:49:15;;;;;;;2.47;2.10;;;;;21.00;99112.00;;;;2086053;28;20236;-49
2021/12/09 00:50:15;;;;;;;3.33;2.40;;;;;20.90;99110.00;;;;2085964;28;20209;-49
2021/12/09 00:51:16;;;;;;;3.00;2.40;;;;;20.90;99113.00;;;;2086337;28;20243;-49
2021/12/09 00:52:16;;;;;;;3.73;2.30;;;;;21.00;99114.00;;;;2085880;28;20201;-49
2021/12/09 00:53:17;;;;;;;2.37;2.17;;;;;20.90;99110.00;;;;2084735;28;20266;-50
2021/12/09 00:54:17;;;;;;;3.83;2.70;;;;;21.00;99112.00;;;;2079369;28;20221;-48
2021/12/09 00:55:17;;;;;;;3.40;2.40;;;;;21.00;99115.00;;;;2081197;28;20227;-48
2021/12/09 00:56:18;;;;;;;2.77;2.30;;;;;20.90;99118.00;;;;2078168;28;20276;-49
2021/12/09 00:57:19;;;;;;;3.55;2.30;;;;;20.90;99119.00;;;;2078533;28;20248;-48
2021/12/09 00:58:20;;;;;;;3.47;2.77;;;;;20.90;99124.00;;;;2078312;28;20213;-49
2021/12/09 00:59:21;;;;;;;3.10;2.60;;;;;20.90;99110.00;;;;2077503;28;20217;-49
2021/12/09 01:00:21;;;;;;;3.27;2.20;;;;;20.90;99123.00;;;;2078430;28;20213;-46
2021/12/09 01:01:23;;;;;;;3.50;2.53;;;;;20.90;99120.00;;;;2077649;28;20224;-48
2021/12/09 01:02:23;;;;;;;4.35;2.60;;;;;20.90;99123.00;;;;2077888;28;20561;-49
2021/12/09 01:03:23;;;;;;;3.60;2.37;;;;;20.90;99131.00;;;;2078811;28;20232;-49
2021/12/09 01:04:24;;;;;;;2.60;2.40;;;;;20.90;99121.00;;;;2083592;28;20217;-48
2021/12/09 01:05:24;;;;;;;4.30;2.63;;;;;20.90;99116.00;;;;2086658;28;20226;-48
2021/12/09 01:06:25;;;;;;;3.40;2.10;;;;;20.90;99123.00;;;;2085773;28;20288;-48
2021/12/09 01:07:25;;;;;;;2.73;2.27;;;;;20.80;99126.00;;;;2084139;28;20597;-48
2021/12/09 01:08:26;;;;;;;3.43;2.50;;;;;20.80;99117.00;;;;2087083;28;20213;-48
2021/12/09 01:09:26;;;;;;;5.47;3.00;;;;;20.80;99121.00;;;;2086555;28;20597;-48
2021/12/09 01:10:28;;;;;;;2.90;2.20;;;;;20.80;99122.00;;;;2085854;28;20282;-49
2021/12/09 01:11:28;;;;;;;3.28;2.10;;;;;20.80;99123.00;;;;2086785;28;20221;-49
2021/12/09 01:12:29;;;;;;;3.10;2.43;;;;;20.80;99122.00;;;;2086784;28;20724;-50
2021/12/09 01:13:29;;;;;;;3.17;2.20;;;;;20.80;99127.00;;;;2087074;28;20208;-48
2021/12/09 01:14:29;;;;;;;3.40;2.40;;;;;20.80;99124.00;;;;2086987;28;20873;-49
2021/12/09 01:15:30;;;;;;;4.63;2.33;;;;;20.80;99125.00;;;;2086704;28;20220;-49
2021/12/09 01:16:30;;;;;;;4.23;2.43;;;;;20.80;99126.00;;;;2085540;28;20224;-48
2021/12/09 01:17:30;;;;;;;3.70;2.80;;;;;20.80;99130.00;;;;2085378;28;20685;-47
2021/12/09 01:18:31;;;;;;;3.50;2.00;;;;;20.80;99126.00;;;;2086461;28;20209;-48
2021/12/09 01:19:31;;;;;;;3.37;2.37;;;;;20.80;99133.00;;;;2086783;28;20262;-49
2021/12/09 01:20:32;;;;;;;4.23;2.40;;;;;20.80;99120.00;;;;2085708;28;20576;-49
2021/12/09 01:21:32;;;;;;;3.37;2.37;;;;;20.80;99130.00;;;;2086532;28;20213;-47
2021/12/09 01:22:38;;;;;;;4.10;2.13;;;;;20.80;99131.00;;;;2085451;28;20239;-47
2021/12/09 01:23:40;;;;;;;4.03;2.40;;;;;20.80;99127.00;;;;2086560;28;20217;-48
2021/12/09 01:24:41;;;;;;;3.97;2.60;;;;;20.70;99132.00;;;;2080400;28;20283;-47
2021/12/09 01:25:43;;;;;;;3.30;2.27;;;;;20.80;99132.00;;;;2078316;28;20214;-47
2021/12/09 01:26:45;;;;;;;4.53;2.80;;;;;20.70;99131.00;;;;2078369;28;20241;-48
2021/12/09 01:27:47;;;;;;;2.50;2.20;;;;;20.80;99132.00;;;;2078643;28;20205;-48
2021/12/09 01:28:56;;;;;;;3.47;2.22;;;;;20.70;99133.00;;;;2083158;28;20250;-49
2021/12/09 01:29:56;;;;;;;4.60;2.40;;;;;20.70;99134.00;;;;2086905;28;20634;-49
2021/12/09 01:31:03;;;;;;;4.07;2.17;;;;;20.80;99132.00;;;;2086098;28;20212;-50
2021/12/09 01:32:06;;;;;;;2.95;2.10;;;;;20.70;99141.00;;;;2085048;28;20554;-48
2021/12/09 01:33:09;;;;;;;3.42;2.60;;;;;20.70;99143.00;;;;2087810;28;20209;-49
2021/12/09 01:34:09;;;;;;;3.63;2.22;;;;;20.70;99138.00;;;;2087490;28;20227;-49
2021/12/09 01:35:10;;;;;;;2.67;2.17;;;;;20.70;99144.00;;;;2087815;28;20354;-49
2021/12/09 01:36:10;;;;;;;4.07;2.67;;;;;20.70;99145.00;;;;2087113;28;20716;-49
2021/12/09 01:37:11;;;;;;;3.93;2.60;;;;;20.70;99147.00;;;;2087592;28;20232;-49
2021/12/09 01:38:14;;;;;;;3.37;2.50;;;;;20.70;99144.00;;;;2087521;28;20217;-49
2021/12/09 01:39:14;;;;;;;4.95;2.50;;;;;20.70;99146.00;;;;2085258;28;20436;-48
2021/12/09 01:40:15;;;;;;;4.33;2.53;;;;;20.70;99144.00;;;;2086858;28;20220;-47
2021/12/09 01:41:15;;;;;;;3.33;2.50;;;;;20.60;99148.00;;;;2081121;28;20220;-49
2021/12/09 01:42:17;;;;;;;4.20;2.77;;;;;20.60;99145.00;;;;2080051;28;20448;-48
2021/12/09 01:43:17;;;;;;;4.00;2.25;;;;;20.70;99153.00;;;;2080073;28;20205;-49
2021/12/09 01:44:18;;;;;;;4.50;2.60;;;;;20.70;99146.00;;;;2080072;28;20642;-49
2021/12/09 01:45:18;;;;;;;3.60;2.43;;;;;20.70;99153.00;;;;2080209;28;20202;-47
2021/12/09 01:46:20;;;;;;;3.90;2.37;;;;;20.60;99147.00;;;;2079906;28;20220;-48
2021/12/09 01:47:22;;;;;;;2.42;2.03;;;;;20.70;99153.00;;;;2079813;28;20198;-47
2021/12/09 01:48:22;;;;;;;3.00;2.63;;;;;20.60;99147.00;;;;2079925;28;20209;-49
2021/12/09 01:49:23;;;;;;;3.67;2.30;;;;;20.60;99153.00;;;;2080007;28;20213;-50
2021/12/09 01:50:23;;;;;;;3.73;2.30;;;;;20.60;99160.00;;;;2079462;28;20561;-49
2021/12/09 01:51:24;;;;;;;3.60;2.40;;;;;20.60;99162.00;;;;2078529;28;20610;-49
2021/12/09 01:52:25;;;;;;;2.30;2.10;;;;;20.60;99155.00;;;;2079146;28;20263;-48
2021/12/09 01:53:25;;;;;;;3.50;2.23;;;;;20.60;99152.00;;;;2079857;28;20495;-48
2021/12/09 01:54:26;;;;;;;3.57;2.40;;;;;20.70;99155.00;;;;2081735;28;20649;-49
2021/12/09 01:55:27;;;;;;;3.70;2.20;;;;;20.60;99169.00;;;;2086287;28;20251;-49
2021/12/09 01:56:27;;;;;;;2.55;2.20;;;;;20.60;99158.00;;;;2078391;28;20584;-48
2021/12/09 01:57:28;;;;;;;5.20;3.00;;;;;20.60;99156.00;;;;2079841;28;20221;-49
2021/12/09 01:58:28;;;;;;;3.17;2.20;;;;;20.60;99157.00;;;;2079504;28;20890;-49
2021/12/09 01:59:29;;;;;;;2.90;2.10;;;;;20.60;99159.00;;;;2078013;28;20284;-48
2021/12/09 02:00:30;;;;;;;4.03;2.20;;;;;20.60;99156.00;;;;2079223;28;20307;-49
2021/12/09 02:01:31;;;;;;;3.90;2.10;;;;;20.60;99169.00;;;;2079823;28;20529;-49
2021/12/09 02:02:32;;;;;;;5.00;2.50;;;;;20.60;99164.00;;;;2078745;28;21026;-49
2021/12/09 02:03:34;;;;;;;4.22;2.50;;;;;20.60;99169.00;;;;2078359;28;20270;-48
2021/12/09 02:04:34;;;;;;;6.43;2.43;;;;;20.60;99160.00;;;;2094226;28;20307;-48
2021/12/09 02:05:40;;;;;;;3.33;2.73;;;;;20.50;99159.00;;;;2084301;28;20225;-49
2021/12/09 02:06:41;;;;;;;3.85;2.25;;;;;20.60;99164.00;;;;2079540;28;20229;-51
2021/12/09 02:07:41;;;;;;;3.50;2.40;;;;;20.60;99155.00;;;;2079861;28;20616;-49
2021/12/09 02:08:43;;;;;;;4.83;2.47;;;;;20.50;99162.00;;;;2077675;28;20217;-49
2021/12/09 02:09:43;;;;;;;4.55;2.55;;;;;20.50;99167.00;;;;2079579;28;20445;-48
2021/12/09 02:10:44;;;;;;;3.20;2.50;;;;;20.50;99170.00;;;;2078804;28;20217;-48
2021/12/09 02:11:45;;;;;;;3.08;2.25;;;;;20.60;99168.00;;;;2079985;28;20216;-49
2021/12/09 02:12:48;;;;;;;3.63;2.53;;;;;20.50;99177.00;;;;2079695;28;21039;-48
2021/12/09 02:13:51;;;;;;;4.32;2.30;;;;;20.50;99170.00;;;;2079770;28;20213;-49
2021/12/09 02:14:53;;;;;;;3.45;2.30;;;;;20.50;99176.00;;;;2078969;28;20213;-47
2021/12/09 02:15:55;;;;;;;3.20;2.20;;;;;20.50;99173.00;;;;2079330;28;20225;-48
2021/12/09 02:16:55;;;;;;;2.78;2.58;;;;;20.50;99166.00;;;;2078819;28;20595;-49
2021/12/09 02:17:56;;;;;;;3.03;2.37;;;;;20.50;99165.00;;;;2080002;28;20229;-48
2021/12/09 02:18:57;;;;;;;4.33;2.40;;;;;20.50;99167.00;;;;2079667;28;20221;-49
2021/12/09 02:19:58;;;;;;;4.60;2.90;;;;;20.50;99162.00;;;;2079213;28;20467;-50
2021/12/09 02:21:24;;;;;;;4.03;2.45;;;;;20.50;99166.00;;;;2077636;28;20229;-49
2021/12/09 02:22:26;;;;;;;4.07;2.30;;;;;20.50;99166.00;;;;2085476;28;20587;-48
2021/12/09 02:23:26;;;;;;;4.45;2.35;;;;;20.40;99169.00;;;;2087310;28;20252;-48
2021/12/09 02:24:27;;;;;;;4.43;2.80;;;;;20.50;99162.00;;;;2080600;28;20225;-49
2021/12/09 02:25:27;;;;;;;4.27;2.20;;;;;20.50;99161.00;;;;2079490;28;20206;-49
2021/12/09 02:26:30;;;;;;;6.73;2.30;;;;;20.40;99155.00;;;;2077283;28;20249;-49
2021/12/09 02:27:30;;;;;;;3.10;2.40;;;;;20.40;99160.00;;;;2078677;28;20240;-49
2021/12/09 02:28:31;;;;;;;3.93;2.13;;;;;20.40;99158.00;;;;2082969;28;20213;-48
2021/12/09 02:29:32;;;;;;;3.27;2.37;;;;;20.40;99160.00;;;;2087528;28;20220;-49
2021/12/09 02:30:32;;;;;;;4.30;2.33;;;;;20.40;99161.00;;;;2086746;28;20467;-49
2021/12/09 02:31:33;;;;;;;3.70;2.33;;;;;20.40;99156.00;;;;2084578;28;20217;-49
2021/12/09 02:32:33;;;;;;;2.67;2.20;;;;;20.40;99152.00;;;;2087595;28;20239;-47
2021/12/09 02:33:33;;;;;;;2.80;2.43;;;;;20.40;99158.00;;;;2082012;28;20214;-49
2021/12/09 02:34:34;;;;;;;3.70;2.60;;;;;20.40;99168.00;;;;2079592;28;20308;-49
2021/12/09 02:35:37;;;;;;;4.23;2.23;;;;;20.40;99156.00;;;;2074160;28;20500;-48
2021/12/09 02:36:40;;;;;;;2.60;1.92;;;;;20.40;99154.00;;;;2085684;28;20474;-49
2021/12/09 02:37:41;;;;;;;4.10;2.63;;;;;20.40;99155.00;;;;2087525;28;20233;-49
2021/12/09 02:38:44;;;;;;;3.40;2.20;;;;;20.40;99151.00;;;;2086561;28;20599;-48
2021/12/09 02:39:44;;;;;;;3.92;2.30;;;;;20.30;99154.00;;;;2087584;28;20224;-48
2021/12/09 02:40:46;;;;;;;2.87;2.30;;;;;20.40;99155.00;;;;2086516;28;20244;-55
2021/12/09 02:41:47;;;;;;;3.83;2.05;;;;;20.40;99154.00;;;;2087303;28;20213;-49
2021/12/09 02:42:48;;;;;;;3.67;2.63;;;;;20.40;99153.00;;;;2084534;28;20223;-48
2021/12/09 02:43:55;;;;;;;3.03;2.33;;;;;20.40;99152.00;;;;2087268;28;20209;-49
2021/12/09 02:44:57;;;;;;;5.35;2.70;;;;;20.40;99147.00;;;;2086559;28;20213;-49
2021/12/09 02:46:00;;;;;;;3.45;2.38;;;;;20.40;99155.00;;;;2087281;28;20233;-49
2021/12/09 02:47:00;;;;;;;3.92;2.58;;;;;20.30;99154.00;;;;2087757;28;20209;-49
2021/12/09 02:48:01;;;;;;;4.00;2.20;;;;;20.40;99154.00;;;;2087719;28;20292;-49
2021/12/09 02:49:02;;;;;;;3.50;2.50;;;;;20.30;99151.00;;;;2088051;28;20216;-50
2021/12/09 02:50:03;;;;;;;4.35;2.75;;;;;20.40;99155.00;;;;2087804;28;20220;-48
2021/12/09 02:51:05;;;;;;;5.35;3.00;;;;;20.30;99164.00;;;;2086672;28;20243;-49
2021/12/09 02:52:06;;;;;;;3.42;2.20;;;;;20.30;99154.00;;;;2087739;28;20220;-48
2021/12/09 02:53:07;;;;;;;4.70;2.63;;;;;20.30;99157.00;;;;2087400;28;20225;-49
2021/12/09 02:54:08;;;;;;;3.73;2.43;;;;;20.30;99154.00;;;;2087203;28;20578;-49
2021/12/09 02:55:09;;;;;;;3.33;2.33;;;;;20.30;99156.00;;;;2084549;28;20710;-48
2021/12/09 02:56:09;;;;;;;3.93;2.53;;;;;20.30;99155.00;;;;2084946;28;20209;-49
2021/12/09 02:57:09;;;;;;;6.27;2.90;;;;;20.30;99158.00;;;;2081402;28;20871;-49
2021/12/09 02:58:10;;;;;;;3.10;1.93;;;;;20.30;99158.00;;;;2086557;28;20237;-49
2021/12/09 02:59:12;;;;;;;5.57;2.33;;;;;20.30;99155.00;;;;2086437;28;20212;-49
2021/12/09 03:00:13;;;;;;;3.00;2.40;;;;;20.30;99153.00;;;;2086983;28;20999;-48
2021/12/09 03:01:22;;;;;;;5.47;2.70;;;;;20.30;99158.00;;;;2085492;28;20237;-49
2021/12/09 03:02:23;;;;;;;3.45;2.50;;;;;20.30;99155.00;;;;2078582;28;20220;-48
2021/12/09 03:03:23;;;;;;;3.70;2.50;;;;;20.30;99158.00;;;;2079076;28;20285;-50
2021/12/09 03:04:44;;;;;;;3.80;2.60;;;;;20.30;99159.00;;;;2079049;28;20218;-49
2021/12/09 03:05:46;;;;;;;4.25;2.50;;;;;20.30;99156.00;;;;2079082;28;20214;-49
2021/12/09 03:06:48;;;;;;;4.72;2.60;;;;;20.30;99154.00;;;;2078025;28;20217;-49
2021/12/09 03:07:49;;;;;;;4.97;2.83;;;;;20.30;99163.00;;;;2086850;28;20720;-50
2021/12/09 03:08:49;;;;;;;4.87;2.73;;;;;20.30;99153.00;;;;2084873;28;20451;-50
2021/12/09 03:09:54;;;;;;;2.70;2.10;;;;;20.30;99159.00;;;;2079460;28;20217;-49
2021/12/09 03:10:54;;;;;;;4.65;2.47;;;;;20.30;99165.00;;;;2077685;28;20499;-48
2021/12/09 03:11:55;;;;;;;3.43;2.10;;;;;20.30;99149.00;;;;2082660;28;20205;-49
2021/12/09 03:12:57;;;;;;;3.63;2.40;;;;;20.30;99156.00;;;;2079369;28;20263;-48
2021/12/09 03:13:58;;;;;;;3.95;2.30;;;;;20.30;99151.00;;;;2079116;28;20210;-49
2021/12/09 03:14:59;;;;;;;3.20;2.38;;;;;20.30;99153.00;;;;2087002;28;20208;-49
2021/12/09 03:16:00;;;;;;;2.95;2.25;;;;;20.30;99153.00;;;;2079136;28;20233;-48
2021/12/09 03:17:01;;;;;;;3.40;2.35;;;;;20.30;99147.00;;;;2077009;28;20214;-48
2021/12/09 03:18:01;;;;;;;4.33;2.60;;;;;20.20;99144.00;;;;2078440;28;20644;-49
2021/12/09 03:19:04;;;;;;;5.47;2.50;;;;;20.20;99151.00;;;;2079169;28;20225;-48
2021/12/09 03:20:08;;;;;;;3.53;2.40;;;;;20.20;99154.00;;;;2077821;28;20215;-48
2021/12/09 03:21:20;;;;;;;3.35;2.65;;;;;20.20;99147.00;;;;2077977;28;20350;-48
2021/12/09 03:22:20;;;;;;;2.95;2.40;;;;;20.20;99160.00;;;;2078382;28;20253;-48
2021/12/09 03:23:20;;;;;;;3.40;2.43;;;;;20.20;99145.00;;;;2078644;28;20214;-50
2021/12/09 03:24:21;;;;;;;3.90;2.20;;;;;20.20;99147.00;;;;2079163;28;20677;-49
2021/12/09 03:25:21;;;;;;;3.20;2.37;;;;;20.30;99152.00;;;;2079271;28;20288;-48
2021/12/09 03:26:28;;;;;;;4.23;2.67;;;;;20.20;99157.00;;;;2078040;28;20617;-54
2021/12/09 03:27:28;;;;;;;3.15;2.15;;;;;20.20;99156.00;;;;2078463;28;20217;-48
2021/12/09 03:28:29;;;;;;;4.07;2.47;;;;;20.20;99155.00;;;;2084600;28;20551;-49
2021/12/09 03:29:29;;;;;;;5.93;2.30;;;;;20.20;99155.00;;;;2082160;28;20316;-49
2021/12/09 03:30:29;;;;;;;3.47;2.33;;;;;20.20;99147.00;;;;2078186;28;20879;-49
2021/12/09 03:31:30;;;;;;;3.80;2.37;;;;;20.20;99163.00;;;;2078565;28;20704;-49
2021/12/09 03:32:31;;;;;;;3.83;2.10;;;;;20.20;99160.00;;;;2078418;28;20904;-48
2021/12/09 03:33:31;;;;;;;3.20;2.50;;;;;20.20;99157.00;;;;2079148;28;20455;-49
2021/12/09 03:34:32;;;;;;;3.03;2.40;;;;;20.20;99159.00;;;;2078852;28;20293;-49
2021/12/09 03:35:33;;;;;;;3.13;2.13;;;;;20.20;99162.00;;;;2077049;28;20304;-49
2021/12/09 03:36:33;;;;;;;4.53;2.50;;;;;20.20;99151.00;;;;2077533;28;20221;-49
2021/12/09 03:37:34;;;;;;;3.60;2.27;;;;;20.20;99164.00;;;;2081919;28;20229;-48
2021/12/09 03:38:34;;;;;;;3.13;2.10;;;;;20.20;99157.00;;;;2081276;28;20222;-48
2021/12/09 03:39:36;;;;;;;3.47;2.50;;;;;20.20;99162.00;;;;2078599;28;20324;-48
2021/12/09 03:40:37;;;;;;;2.35;2.03;;;;;20.10;99158.00;;;;2077729;28;20291;-48
2021/12/09 03:41:38;;;;;;;3.77;2.07;;;;;20.20;99158.00;;;;2078707;28;20218;-48
2021/12/09 03:42:39;;;;;;;4.32;2.40;;;;;20.20;99160.00;;;;2078391;28;20687;-49
2021/12/09 03:43:39;;;;;;;2.90;2.60;;;;;20.20;99163.00;;;;2078761;28;20297;-47
2021/12/09 03:44:40;;;;;;;3.33;2.20;;;;;20.10;99162.00;;;;2078587;28;20221;-48
2021/12/09 03:45:41;;;;;;;5.57;2.55;;;;;20.10;99155.00;;;;2081108;28;20287;-49
2021/12/09 03:46:42;;;;;;;3.30;2.30;;;;;20.10;99160.00;;;;2085815;28;20252;-49
2021/12/09 03:47:43;;;;;;;3.75;2.25;;;;;20.10;99163.00;;;;2077452;28;20229;-49
2021/12/09 03:48:43;;;;;;;4.20;2.13;;;;;20.10;99157.00;;;;2086014;28;20318;-49
2021/12/09 03:49:44;;;;;;;4.20;2.80;;;;;20.10;99161.00;;;;2086712;28;20223;-48
2021/12/09 03:50:45;;;;;;;2.93;2.30;;;;;20.10;99156.00;;;;2085835;28;20221;-48
2021/12/09 03:51:46;;;;;;;2.55;2.28;;;;;20.10;99160.00;;;;2078552;28;20708;-47
2021/12/09 03:52:46;;;;;;;3.20;2.50;;;;;20.20;99160.00;;;;2074777;28;20315;-49
2021/12/09 03:53:46;;;;;;;3.13;2.23;;;;;20.10;99158.00;;;;2085837;28;20263;-49
2021/12/09 03:54:47;;;;;;;3.80;2.60;;;;;20.10;99169.00;;;;2079853;28;20326;-49
2021/12/09 03:55:47;;;;;;;5.30;2.50;;;;;20.10;99165.00;;;;2078225;28;20223;-49
2021/12/09 03:56:48;;;;;;;4.27;2.23;;;;;20.10;99167.00;;;;2071917;28;20225;-47
2021/12/09 03:57:48;;;;;;;2.87;2.20;;;;;20.10;99162.00;;;;2077911;28;20305;-48
2021/12/09 03:58:49;;;;;;;4.60;2.70;;;;;20.10;99158.00;;;;2077443;28;20708;-49
2021/12/09 03:59:49;;;;;;;4.70;2.47;;;;;20.10;99160.00;;;;2078274;28;20759;-49
2021/12/09 04:00:50;;;;;;;3.40;2.30;;;;;20.10;99159.00;;;;2077508;28;20705;-49
2021/12/09 04:01:50;;;;;;;4.77;2.70;;;;;20.10;99154.00;;;;2078308;28;20771;-48
2021/12/09 04:02:50;;;;;;;3.33;2.33;;;;;20.10;99162.00;;;;2077865;28;20773;-48
2021/12/09 04:03:51;;;;;;;3.20;2.17;;;;;20.10;99161.00;;;;2086787;28;20217;-49
2021/12/09 04:04:51;;;;;;;4.37;2.77;;;;;20.10;99166.00;;;;2086098;28;20212;-49
2021/12/09 04:05:53;;;;;;;4.10;2.40;;;;;20.10;99165.00;;;;2086097;28;20584;-48
2021/12/09 04:06:53;;;;;;;2.63;2.13;;;;;20.10;99166.00;;;;2086668;28;20209;-49
2021/12/09 04:07:53;;;;;;;3.43;2.20;;;;;20.10;99163.00;;;;2086569;28;20232;-49
2021/12/09 04:08:54;;;;;;;4.03;2.40;;;;;20.10;99157.00;;;;2085858;28;20388;-49
2021/12/09 04:09:54;;;;;;;3.67;2.60;;;;;20.10;99162.00;;;;2086533;28;20222;-48
2021/12/09 04:10:54;;;;;;;2.40;2.07;;;;;20.10;99164.00;;;;2085902;28;20237;-49
2021/12/09 04:11:55;;;;;;;3.90;2.30;;;;;20.10;99161.00;;;;2086960;28;20208;-48
2021/12/09 04:12:56;;;;;;;4.10;2.40;;;;;20.00;99154.00;;;;2086663;28;20217;-49
2021/12/09 04:13:56;;;;;;;3.92;2.40;;;;;20.00;99164.00;;;;2085648;28;20774;-48
2021/12/09 04:14:57;;;;;;;3.13;2.57;;;;;20.10;99162.00;;;;2085676;28;20251;-48
2021/12/09 04:15:58;;;;;;;3.33;2.20;;;;;20.10;99166.00;;;;2085831;28;20274;-48
2021/12/09 04:16:58;;;;;;;3.90;2.40;;;;;20.10;99166.00;;;;2086598;28;20216;-49
2021/12/09 04:17:59;;;;;;;3.67;2.67;;;;;20.00;99167.00;;;;2085650;28;20271;-49
2021/12/09 04:18:59;;;;;;;2.90;2.10;;;;;20.10;99170.00;;;;2086686;28;20851;-49
2021/12/09 04:19:59;;;;;;;3.30;2.37;;;;;20.10;99171.00;;;;2082887;28;20616;-55
2021/12/09 04:21:01;;;;;;;3.77;2.57;;;;;20.10;99166.00;;;;2076563;28;20278;-51
2021/12/09 04:22:01;;;;;;;2.85;2.25;;;;;20.10;99169.00;;;;2078285;28;20216;-51
2021/12/09 04:23:03;;;;;;;3.77;2.07;;;;;20.00;99174.00;;;;2078509;28;20216;-49
2021/12/09 04:24:07;;;;;;;4.47;2.50;;;;;20.00;99175.00;;;;2078389;28;20607;-48
2021/12/09 04:25:08;;;;;;;2.85;2.17;;;;;20.00;99173.00;;;;2076245;28;20214;-49
2021/12/09 04:26:08;;;;;;;2.10;1.90;;;;;20.00;99179.00;;;;2078476;28;20588;-49
2021/12/09 04:27:09;;;;;;;3.80;2.40;;;;;20.00;99176.00;;;;2084225;28;20209;-49
2021/12/09 04:28:09;;;;;;;3.30;2.13;;;;;20.00;99173.00;;;;2086648;28;20756;-49
2021/12/09 04:29:10;;;;;;;2.87;2.40;;;;;20.00;99180.00;;;;2082367;28;20704;-49
2021/12/09 04:30:11;;;;;;;4.50;2.60;;;;;20.00;99175.00;;;;2074735;28;20585;-49
2021/12/09 04:31:11;;;;;;;4.57;2.20;;;;;20.00;99177.00;;;;2084407;28;20534;-50
2021/12/09 04:32:11;;;;;;;2.80;2.40;;;;;20.00;99173.00;;;;2080260;28;21067;-49
2021/12/09 04:33:12;;;;;;;2.80;1.90;;;;;20.00;99167.00;;;;2078935;28;20252;-48
2021/12/09 04:34:12;;;;;;;5.30;2.10;;;;;20.00;99173.00;;;;2085947;28;20209;-48
2021/12/09 04:35:13;;;;;;;3.10;2.10;;;;;20.00;99177.00;;;;2086826;28;20234;-48
2021/12/09 04:36:14;;;;;;;3.20;2.50;;;;;20.00;99167.00;;;;2087078;28;20205;-48
2021/12/09 04:37:14;;;;;;;3.17;2.30;;;;;20.00;99179.00;;;;2086303;28;20240;-48
2021/12/09 04:38:15;;;;;;;4.17;2.27;;;;;20.00;99173.00;;;;2081886;28;20213;-48
2021/12/09 04:39:15;;;;;;;3.70;2.30;;;;;20.00;99170.00;;;;2078583;28;20308;-47
2021/12/09 04:40:16;;;;;;;5.03;2.10;;;;;20.00;99168.00;;;;2077990;28;20217;-48
2021/12/09 04:41:16;;;;;;;3.90;2.23;;;;;20.00;99174.00;;;;2085365;28;20251;-49
2021/12/09 04:42:17;;;;;;;4.50;2.20;;;;;20.00;99175.00;;;;2082363;28;20205;-48
2021/12/09 04:43:17;;;;;;;2.17;1.80;;;;;20.00;99169.00;;;;2086636;28;20205;-47
2021/12/09 04:44:17;;;;;;;2.57;2.10;;;;;19.90;99175.00;;;;2086371;28;20270;-49
2021/12/09 04:45:18;;;;;;;4.90;2.70;;;;;20.00;99171.00;;;;2085148;28;20890;-49
2021/12/09 04:46:18;;;;;;;2.80;2.13;;;;;19.90;99171.00;;;;2086805;28;20255;-49
2021/12/09 04:47:18;;;;;;;3.23;2.40;;;;;19.90;99170.00;;;;2082481;28;20235;-49
2021/12/09 04:48:19;;;;;;;3.53;2.40;;;;;20.00;99177.00;;;;2086359;28;20212;-47
2021/12/09 04:49:19;;;;;;;3.20;2.37;;;;;19.90;99170.00;;;;2085679;28;20240;-48
2021/12/09 04:50:19;;;;;;;3.20;2.20;;;;;19.90;99175.00;;;;2086393;28;20270;-49
2021/12/09 04:51:20;;;;;;;2.67;2.10;;;;;19.90;99173.00;;;;2085479;28;20205;-49
2021/12/09 04:52:20;;;;;;;3.30;2.10;;;;;19.90;99179.00;;;;2085899;28;20205;-49
2021/12/09 04:53:20;;;;;;;3.00;2.00;;;;;19.90;99184.00;;;;2086158;28;20912;-49
2021/12/09 04:54:21;;;;;;;2.43;2.10;;;;;19.90;99191.00;;;;2080172;28;20599;-49
2021/12/09 04:55:21;;;;;;;4.27;1.77;;;;;19.90;99188.00;;;;2069363;28;20206;-49
2021/12/09 04:56:21;;;;;;;4.13;2.07;;;;;19.90;99186.00;;;;2076886;28;20263;-48
2021/12/09 04:57:22;;;;;;;3.70;2.20;;;;;19.90;99187.00;;;;2078638;28;20218;-49
2021/12/09 04:58:23;;;;;;;3.50;2.30;;;;;19.90;99192.00;;;;2079288;28;20255;-47
2021/12/09 04:59:24;;;;;;;4.80;2.20;;;;;20.00;99191.00;;;;2086633;28;20213;-48
2021/12/09 05:00:25;;;;;;;3.30;1.80;;;;;19.90;99192.00;;;;2086351;28;20205;-49
2021/12/09 05:01:25;;;;;;;3.53;2.15;;;;;19.90;99196.00;;;;2086776;28;20221;-49
2021/12/09 05:02:43;;;;;;;2.50;2.03;;;;;19.90;99189.00;;;;2086959;28;20217;-47
2021/12/09 05:03:47;;;;;;;3.45;1.90;;;;;19.90;99198.00;;;;2086865;28;20220;-49
2021/12/09 05:04:47;;;;;;;2.97;1.95;;;;;19.90;99199.00;;;;2085244;28;20308;-48
2021/12/09 05:05:52;;;;;;;3.50;2.30;;;;;19.90;99196.00;;;;2085116;28;20220;-47
2021/12/09 05:06:52;;;;;;;3.60;1.60;;;;;19.90;99203.00;;;;2078720;28;20213;-49
2021/12/09 05:07:53;;;;;;;3.87;2.37;;;;;19.90;99197.00;;;;2076107;28;20217;-49